CBQ9 weather

Public forecast

Using degrees Celsius for public forecast. Weather courtesy of forecast.io.

Closest aviation weather report (METAR) to Quennell Lake Seaplane Base

Closest report is Nanaimo Airport, 2.0 nm (3.8 km) SW. Retrieved 2020/08/13 17:00 UTC (49 minutes ago):

CYCD 131700Z 03007KT 010V080 25SM FEW024 SCT035 BKN240 19/11 A3013 RMK SC2CU1CI4 SLP205 DENSITY ALT 300FT

Closest aviation forecast (TAF) to Quennell Lake Seaplane Base

Closest forecast is Nanaimo Airport, 2.0 nm (3.8 km) SW. Retrieved 2020/08/13 15:39 UTC (2 hours ago):

TAF CYCD 131438Z 1315/1403 VRB03KT P6SM FEW025 FEW050 SCT140 FM131800 06005KT P6SM SCT040 BKN100 FM132100 09007KT P6SM FEW040 SCT100 RMK NXT FCST BY 131800Z